createdAt,value
2018-07-13T00:57:15.558Z,99.90
2018-07-13T00:59:44.199Z,99.90
2018-07-13T01:02:12.644Z,99.90
2018-07-13T01:04:41.038Z,99.90
2018-07-13T01:07:10.093Z,99.90
2018-07-13T01:09:38.549Z,99.90
2018-07-13T01:12:07.483Z,99.90
2018-07-13T01:14:36.105Z,99.90
2018-07-13T01:17:04.602Z,99.90
2018-07-13T01:19:33.393Z,99.90
2018-07-13T01:22:01.973Z,99.90
2018-07-13T01:24:30.995Z,99.90
2018-07-13T01:26:59.368Z,99.90
2018-07-13T01:31:56.232Z,99.90
2018-07-13T01:34:25.257Z,99.90
2018-07-13T01:36:54.210Z,99.90
2018-07-13T01:39:23.079Z,99.90
2018-07-13T01:41:51.514Z,99.90
2018-07-13T01:44:20.481Z,99.90
2018-07-13T01:46:48.889Z,99.90
2018-07-13T01:49:17.620Z,99.90
2018-07-13T01:51:46.010Z,99.90
2018-07-13T01:54:15.345Z,99.90
2018-07-13T01:56:44.461Z,99.90
2018-07-13T01:59:13.682Z,99.90
2018-07-13T02:01:42.613Z,99.90
2018-07-13T02:04:11.092Z,99.90
2018-07-13T02:06:39.511Z,99.90
2018-07-13T02:09:09.542Z,99.90
2018-07-13T02:11:38.058Z,99.90
2018-07-13T02:14:06.618Z,99.90
2018-07-13T02:16:35.753Z,99.90
2018-07-13T02:19:04.176Z,99.90
2018-07-13T02:21:32.848Z,99.90
2018-07-13T02:24:01.286Z,99.90
2018-07-13T02:26:30.158Z,99.90
2018-07-13T02:28:59.282Z,99.90
2018-07-13T02:31:27.988Z,99.90
2018-07-13T02:33:56.658Z,99.90
2018-07-13T02:36:25.192Z,99.90
2018-07-13T02:38:53.694Z,99.90
2018-07-13T02:41:22.552Z,99.90
2018-07-13T02:43:51.653Z,99.90
2018-07-13T02:46:20.049Z,99.90
2018-07-13T02:48:48.499Z,99.90
2018-07-13T02:51:16.882Z,99.90
2018-07-13T02:53:45.643Z,99.90
2018-07-13T02:56:14.242Z,99.90
2018-07-13T02:58:42.652Z,99.90
2018-07-13T03:01:11.596Z,99.90
2018-07-13T03:03:40.174Z,99.90
2018-07-13T03:06:08.644Z,99.90
2018-07-13T03:08:37.111Z,99.90
2018-07-13T03:11:05.613Z,99.90
2018-07-13T03:13:34.251Z,99.90
2018-07-13T03:16:02.712Z,99.90
2018-07-13T03:18:31.137Z,99.90
2018-07-13T03:20:59.710Z,99.90
2018-07-13T03:23:28.915Z,99.90
2018-07-13T03:25:57.477Z,99.90
2018-07-13T03:28:25.902Z,99.90
2018-07-13T03:30:54.293Z,99.90
2018-07-13T03:33:23.884Z,99.90
2018-07-13T03:35:52.281Z,99.90
2018-07-13T03:38:20.825Z,99.90
2018-07-13T03:40:49.814Z,99.90
2018-07-13T03:43:18.337Z,99.90
2018-07-13T03:45:46.757Z,99.90
2018-07-13T03:48:15.240Z,99.90
2018-07-13T03:50:44.141Z,99.90
2018-07-13T03:53:12.638Z,99.90
2018-07-13T03:55:41.183Z,99.90
2018-07-13T03:58:10.435Z,99.90
2018-07-13T04:00:39.134Z,99.90
2018-07-13T04:03:07.601Z,99.90
2018-07-13T04:05:36.223Z,99.90
2018-07-13T04:08:05.018Z,99.90
2018-07-13T04:10:33.842Z,99.90
2018-07-13T04:13:02.324Z,99.90
2018-07-13T04:15:30.762Z,99.90
2018-07-13T04:17:59.148Z,99.90
2018-07-13T04:20:27.748Z,99.90
2018-07-13T04:22:57.401Z,99.90
2018-07-13T04:25:26.221Z,99.90
2018-07-13T04:27:55.549Z,99.90
2018-07-13T04:30:24.489Z,99.90
2018-07-13T04:32:52.956Z,99.90
2018-07-13T04:35:22.120Z,99.90
2018-07-13T04:37:50.893Z,99.90
2018-07-13T04:40:19.472Z,99.90
2018-07-13T04:42:48.375Z,99.90
2018-07-13T04:45:17.289Z,99.90
2018-07-13T04:47:45.775Z,99.90
2018-07-13T04:50:14.717Z,99.90
2018-07-13T04:52:43.287Z,99.90
2018-07-13T04:55:11.769Z,99.90
2018-07-13T04:57:40.383Z,99.90
2018-07-13T05:00:09.504Z,99.90
2018-07-13T05:02:39.114Z,99.90
2018-07-13T05:05:08.276Z,99.90
2018-07-13T05:07:37.068Z,99.90
2018-07-13T05:10:06.153Z,99.90
2018-07-13T05:12:35.043Z,99.90
2018-07-13T05:15:03.677Z,99.90
2018-07-13T05:17:32.428Z,99.90
2018-07-13T05:20:01.194Z,99.90
2018-07-13T05:22:29.656Z,99.90
2018-07-13T05:24:58.329Z,99.90
2018-07-13T05:27:27.572Z,99.90
2018-07-13T05:29:56.341Z,99.90
2018-07-13T05:32:24.993Z,99.90
2018-07-13T05:34:54.070Z,99.90
2018-07-13T05:37:22.744Z,99.90
2018-07-13T05:39:51.894Z,99.90
2018-07-13T05:42:20.528Z,99.90
2018-07-13T05:44:49.724Z,99.90
2018-07-13T05:47:18.855Z,99.90
2018-07-13T05:49:47.918Z,99.90
2018-07-13T05:52:17.079Z,99.90
2018-07-13T05:54:45.722Z,99.90
2018-07-13T05:57:14.478Z,99.90
2018-07-13T06:02:11.476Z,99.90
2018-07-13T06:04:40.121Z,99.90
2018-07-13T06:09:38.473Z,99.90
2018-07-13T06:12:07.638Z,99.90
2018-07-13T06:14:36.488Z,99.90
2018-07-13T06:17:05.134Z,98.40
2018-07-13T06:19:33.612Z,96.00
2018-07-13T06:22:02.227Z,96.10
2018-07-13T06:24:30.915Z,95.50
2018-07-13T06:26:59.729Z,94.30
2018-07-13T06:29:28.233Z,91.80
2018-07-13T06:31:57.577Z,91.40
2018-07-13T06:34:26.090Z,87.60
2018-07-13T06:36:54.748Z,82.10
2018-07-13T06:39:23.371Z,77.60
2018-07-13T06:41:51.897Z,70.80
2018-07-13T06:44:20.344Z,69.20
2018-07-13T06:46:48.813Z,70.90
2018-07-13T06:49:17.776Z,68.20
2018-07-13T06:51:46.474Z,66.90
2018-07-13T06:54:15.494Z,60.00
2018-07-13T06:56:44.403Z,59.70
2018-07-13T06:59:19.405Z,57.20
2018-07-13T07:01:48.686Z,54.40
2018-07-13T07:04:41.167Z,53.50
2018-07-13T07:07:13.502Z,50.20
2018-07-13T07:09:46.992Z,47.90
2018-07-13T07:12:28.083Z,47.80
2018-07-13T07:14:57.013Z,46.70
2018-07-13T07:17:25.453Z,43.40
2018-07-13T07:19:54.678Z,45.50
2018-07-13T07:22:23.124Z,46.00
2018-07-13T07:24:51.770Z,46.60
2018-07-13T07:27:20.242Z,46.10
2018-07-13T07:29:49.005Z,46.20
2018-07-13T07:32:17.439Z,47.20
2018-07-13T07:34:46.088Z,47.90
2018-07-13T07:37:14.621Z,47.70
2018-07-13T07:39:43.042Z,46.80
2018-07-13T07:42:11.485Z,45.70
2018-07-13T07:44:40.619Z,45.50
2018-07-13T07:47:09.231Z,45.80
2018-07-13T07:49:37.888Z,45.80
2018-07-13T07:52:06.551Z,46.10
2018-07-13T07:54:35.299Z,41.40
2018-07-13T07:57:04.277Z,42.10
2018-07-13T07:59:34.166Z,42.30
2018-07-13T08:02:04.244Z,46.00
2018-07-13T08:04:32.960Z,44.80
2018-07-13T08:07:02.061Z,42.90
2018-07-13T08:09:31.272Z,43.90
2018-07-13T08:12:00.223Z,40.40
2018-07-13T08:14:28.889Z,39.20
2018-07-13T08:16:57.864Z,36.60
2018-07-13T08:19:27.035Z,38.70
2018-07-13T08:21:55.824Z,39.80
2018-07-13T08:24:24.640Z,39.40
2018-07-13T08:26:55.845Z,35.90
2018-07-13T08:29:28.776Z,39.50
2018-07-13T08:31:57.736Z,35.50
2018-07-13T08:34:26.179Z,39.00
2018-07-13T08:36:54.924Z,37.40
2018-07-13T08:39:24.325Z,35.00
2018-07-13T08:41:53.056Z,35.80
2018-07-13T08:44:21.817Z,37.60
2018-07-13T08:46:50.362Z,36.00
2018-07-13T08:49:19.023Z,36.40
2018-07-13T08:51:47.604Z,36.30
2018-07-13T08:54:16.782Z,37.40
2018-07-13T08:56:45.621Z,36.30
2018-07-13T08:59:14.710Z,36.80
2018-07-13T09:01:43.659Z,37.80
2018-07-13T09:04:12.844Z,37.30
2018-07-13T09:06:41.848Z,34.60
2018-07-13T09:09:16.874Z,37.40
2018-07-13T09:11:45.867Z,38.80
2018-07-13T09:14:15.305Z,38.20
2018-07-13T09:16:43.804Z,39.50
2018-07-13T09:19:12.297Z,40.60
2018-07-13T09:21:40.677Z,45.10
2018-07-13T09:24:09.376Z,43.90
2018-07-13T09:26:38.140Z,41.90
2018-07-13T09:29:07.989Z,41.90
2018-07-13T09:31:37.147Z,41.40
2018-07-13T09:34:05.981Z,38.60
2018-07-13T09:36:34.574Z,40.60
2018-07-13T09:39:04.552Z,43.40
2018-07-13T09:41:33.400Z,40.00
2018-07-13T09:44:02.313Z,35.40
2018-07-13T09:46:31.047Z,39.40
2018-07-13T09:49:00.305Z,40.00
2018-07-13T09:51:28.894Z,43.20
2018-07-13T09:53:57.645Z,42.50
2018-07-13T09:56:26.071Z,38.40
2018-07-13T09:58:54.457Z,36.90
2018-07-13T10:01:24.057Z,39.40
2018-07-13T10:03:53.083Z,36.60
2018-07-13T10:06:22.078Z,36.00
2018-07-13T10:08:50.663Z,36.70
2018-07-13T10:11:19.257Z,37.70
2018-07-13T10:13:48.044Z,37.10
2018-07-13T10:16:17.182Z,34.60
2018-07-13T10:18:46.680Z,33.10
2018-07-13T10:21:15.654Z,36.00
2018-07-13T10:23:44.677Z,34.10
2018-07-13T10:26:20.874Z,35.20
2018-07-13T10:28:50.826Z,37.00
2018-07-13T10:31:19.350Z,37.80
2018-07-13T10:33:47.993Z,34.70
2018-07-13T10:36:18.864Z,37.00
2018-07-13T10:38:47.639Z,38.80
2018-07-13T10:41:16.100Z,33.30
2018-07-13T10:43:44.931Z,33.10
2018-07-13T10:46:13.443Z,38.30
2018-07-13T10:48:42.391Z,35.70
2018-07-13T10:51:11.983Z,32.70
2018-07-13T10:53:40.516Z,37.10
2018-07-13T10:56:12.401Z,34.30
2018-07-13T10:58:40.892Z,34.40
2018-07-13T11:06:06.271Z,34.70
2018-07-13T11:08:34.898Z,35.10
2018-07-13T11:11:03.565Z,34.40
2018-07-13T11:13:32.458Z,35.00
2018-07-13T11:16:00.907Z,34.20
2018-07-13T11:18:29.836Z,36.40
2018-07-13T11:20:58.506Z,38.50
2018-07-13T11:23:26.872Z,40.30
2018-07-13T11:25:55.345Z,38.50
2018-07-13T11:28:24.081Z,38.60
2018-07-13T11:30:59.174Z,36.70
2018-07-13T11:33:28.955Z,37.60
2018-07-13T11:35:57.604Z,42.00
2018-07-13T11:38:26.283Z,39.90
2018-07-13T11:40:55.111Z,44.50
2018-07-13T11:43:24.444Z,43.70
2018-07-13T11:45:53.131Z,39.80
2018-07-13T11:48:21.981Z,41.90
2018-07-13T11:50:51.381Z,38.80
2018-07-13T11:53:20.166Z,39.70
2018-07-13T11:55:49.038Z,39.20
2018-07-13T11:58:17.741Z,41.90
2018-07-13T12:03:14.884Z,41.00
2018-07-13T12:05:43.657Z,43.80
2018-07-13T12:08:12.138Z,44.60
2018-07-13T12:10:41.648Z,45.40
2018-07-13T12:13:10.602Z,44.20
2018-07-13T12:15:39.005Z,46.00
2018-07-13T12:18:07.628Z,44.10
2018-07-13T12:20:37.969Z,43.90
2018-07-13T12:23:06.414Z,42.90
2018-07-13T12:25:35.232Z,42.90
2018-07-13T12:28:04.044Z,42.70
2018-07-13T12:30:33.426Z,42.90
2018-07-13T12:33:02.102Z,42.00
2018-07-13T12:35:30.910Z,41.50
2018-07-13T12:37:59.470Z,42.50
2018-07-13T12:40:29.328Z,42.10
2018-07-13T12:42:58.149Z,43.70
2018-07-13T12:45:26.575Z,44.90
2018-07-13T12:47:55.310Z,41.00
2018-07-13T12:50:24.629Z,41.90
2018-07-13T12:52:53.294Z,41.50
2018-07-13T12:55:22.519Z,41.20
2018-07-13T12:57:51.038Z,42.60
2018-07-13T13:00:19.896Z,44.90
2018-07-13T13:02:49.341Z,44.10
2018-07-13T13:05:18.422Z,45.00
2018-07-13T13:07:53.482Z,43.70
2018-07-13T13:10:23.155Z,44.70
2018-07-13T13:12:51.759Z,43.30
2018-07-13T13:15:20.732Z,44.30
2018-07-13T13:17:49.548Z,42.60
2018-07-13T13:20:18.722Z,41.80
2018-07-13T13:22:49.211Z,46.30
2018-07-13T13:25:18.049Z,46.90
2018-07-13T13:27:47.757Z,45.30
2018-07-13T13:30:16.208Z,43.00
2018-07-13T13:32:44.653Z,42.70
2018-07-13T13:35:14.006Z,46.70
2018-07-13T13:37:43.411Z,44.50
2018-07-13T13:40:11.844Z,47.00
2018-07-13T13:42:40.609Z,46.80
2018-07-13T13:45:09.416Z,46.10
2018-07-13T13:47:38.957Z,46.80
2018-07-13T13:50:07.671Z,46.50
2018-07-13T13:52:36.531Z,46.00
2018-07-13T13:55:05.684Z,45.80
2018-07-13T13:57:34.119Z,45.50
2018-07-13T14:00:02.705Z,47.20
2018-07-13T14:02:31.782Z,48.30
2018-07-13T14:05:00.624Z,42.80
2018-07-13T14:07:29.600Z,43.90
2018-07-13T14:09:58.042Z,45.50
2018-07-13T14:12:26.844Z,45.50
2018-07-13T14:14:55.281Z,43.80
2018-07-13T14:17:23.726Z,42.20
2018-07-13T14:19:52.461Z,42.30
2018-07-13T14:24:49.587Z,45.30
2018-07-13T14:27:18.201Z,40.40
2018-07-13T14:29:46.966Z,43.30
2018-07-13T14:32:16.080Z,42.90
2018-07-13T14:34:44.518Z,44.40
2018-07-13T14:37:13.109Z,44.50
2018-07-13T14:39:42.093Z,46.70
2018-07-13T14:42:10.617Z,45.90
2018-07-13T14:44:39.672Z,46.20
2018-07-13T14:47:08.603Z,46.90
2018-07-13T14:49:37.424Z,45.60
2018-07-13T14:52:06.368Z,47.50
2018-07-13T14:54:35.074Z,45.80
2018-07-13T14:57:04.005Z,44.80
2018-07-13T14:59:32.599Z,41.50
2018-07-13T15:02:01.252Z,41.50
2018-07-13T15:04:31.097Z,44.50
2018-07-13T15:06:59.687Z,43.10
2018-07-13T15:09:28.452Z,41.30
2018-07-13T15:11:56.848Z,42.60
2018-07-13T15:14:25.787Z,44.70
2018-07-13T15:16:54.484Z,46.10
2018-07-13T15:19:23.631Z,47.40
2018-07-13T15:21:52.892Z,44.40
2018-07-13T15:24:21.782Z,43.60
2018-07-13T15:26:50.514Z,45.50
2018-07-13T15:29:19.272Z,46.80
2018-07-13T15:31:48.163Z,48.30
2018-07-13T15:34:16.803Z,46.80
2018-07-13T15:36:45.538Z,46.70
2018-07-13T15:39:14.036Z,47.30
2018-07-13T15:41:42.611Z,47.70
2018-07-13T15:44:11.296Z,46.70
2018-07-13T15:46:40.288Z,49.00
2018-07-13T15:49:08.887Z,48.20
2018-07-13T15:51:37.411Z,49.10
2018-07-13T15:56:34.687Z,47.60
2018-07-13T15:59:03.695Z,46.60
2018-07-13T16:01:32.222Z,48.00
2018-07-13T16:04:01.399Z,46.00
2018-07-13T16:06:30.346Z,47.30
2018-07-13T16:08:59.277Z,47.30
2018-07-13T16:11:29.636Z,47.30
2018-07-13T16:13:59.587Z,46.90
2018-07-13T16:16:28.016Z,49.10
2018-07-13T16:18:56.646Z,48.60
2018-07-13T16:21:25.203Z,49.60
2018-07-13T16:23:53.784Z,48.10
2018-07-13T16:26:22.717Z,47.70
2018-07-13T16:28:51.136Z,48.80
2018-07-13T16:31:20.132Z,46.50
2018-07-13T16:33:49.481Z,48.40
2018-07-13T16:36:18.418Z,49.30
2018-07-13T16:38:46.885Z,48.40
2018-07-13T16:41:15.961Z,49.20
2018-07-13T16:43:44.596Z,47.70
2018-07-13T16:46:13.065Z,46.80
2018-07-13T16:48:41.522Z,45.90
2018-07-13T16:51:10.977Z,47.00
2018-07-13T16:53:40.231Z,47.90
2018-07-13T16:56:09.061Z,48.90
2018-07-13T16:58:37.845Z,48.20
2018-07-13T17:01:06.920Z,48.40
2018-07-13T17:03:35.908Z,49.00
2018-07-13T17:06:04.612Z,49.00
2018-07-13T17:08:34.365Z,49.00
2018-07-13T17:11:03.077Z,51.00
2018-07-13T17:13:31.707Z,52.00
2018-07-13T17:16:00.296Z,49.10
2018-07-13T17:18:28.914Z,49.60
2018-07-13T17:20:58.108Z,52.50
2018-07-13T17:23:27.157Z,52.90
2018-07-13T17:25:55.656Z,53.00
2018-07-13T17:28:24.274Z,53.80
2018-07-13T17:30:52.812Z,54.20
2018-07-13T17:33:21.597Z,55.20
2018-07-13T17:35:50.243Z,53.70
2018-07-13T17:38:19.160Z,53.80
2018-07-13T17:40:47.935Z,54.30
2018-07-13T17:43:16.550Z,54.50
2018-07-13T17:45:48.475Z,54.90
2018-07-13T17:48:17.076Z,55.30
2018-07-13T17:50:45.718Z,55.90
2018-07-13T17:53:14.383Z,55.00
2018-07-13T17:55:44.058Z,56.50
2018-07-13T17:58:12.926Z,56.80
2018-07-13T18:00:41.369Z,56.60
2018-07-13T18:03:10.908Z,55.80
2018-07-13T18:05:39.566Z,57.20
2018-07-13T18:08:08.066Z,57.10
2018-07-13T18:10:37.160Z,57.90
2018-07-13T18:13:06.399Z,57.80
2018-07-13T18:15:35.246Z,57.20
2018-07-13T18:18:04.164Z,59.20
2018-07-13T18:20:33.208Z,58.20
2018-07-13T18:23:01.750Z,57.70
2018-07-13T18:25:30.605Z,57.90
2018-07-13T18:27:59.287Z,58.60
2018-07-13T18:30:28.452Z,58.60
2018-07-13T18:32:57.028Z,58.30
2018-07-13T18:35:25.789Z,58.50
2018-07-13T18:37:54.771Z,59.80
2018-07-13T18:40:23.687Z,59.60
2018-07-13T18:42:52.407Z,59.10
2018-07-13T18:45:21.409Z,59.50
2018-07-13T18:47:50.562Z,59.90
2018-07-13T18:50:19.933Z,60.10
2018-07-13T18:52:48.596Z,60.30
2018-07-13T18:55:17.231Z,60.70
2018-07-13T18:57:45.804Z,61.60
2018-07-13T19:00:15.033Z,62.10
2018-07-13T19:02:44.471Z,62.40
2018-07-13T19:05:13.295Z,62.50
2018-07-13T19:07:41.768Z,63.00
2018-07-13T19:10:10.397Z,63.50
2018-07-13T19:12:38.852Z,63.80
2018-07-13T19:15:07.689Z,64.60
2018-07-13T19:17:36.415Z,66.30
2018-07-13T19:20:05.537Z,66.20
2018-07-13T19:22:34.177Z,66.90
2018-07-13T19:25:03.270Z,68.20
2018-07-13T19:27:31.797Z,69.20
2018-07-13T19:30:00.309Z,69.60
2018-07-13T19:32:28.854Z,70.70
2018-07-13T19:34:57.734Z,72.10
2018-07-13T19:37:26.530Z,73.10
2018-07-13T19:39:55.100Z,75.00
2018-07-13T19:42:24.300Z,76.90
2018-07-13T19:44:53.199Z,78.80
2018-07-13T19:47:21.948Z,80.00
2018-07-13T19:49:51.056Z,81.70
2018-07-13T19:52:20.000Z,84.20
2018-07-13T19:54:48.960Z,87.10
2018-07-13T19:57:18.020Z,89.00
2018-07-13T19:59:46.750Z,90.50
2018-07-13T20:02:15.225Z,90.90
2018-07-13T20:04:43.810Z,91.20
2018-07-13T20:07:12.255Z,91.80
2018-07-13T20:09:40.720Z,92.50
2018-07-13T20:12:09.157Z,92.20
2018-07-13T20:14:37.636Z,93.00
2018-07-13T20:17:06.552Z,94.60
2018-07-13T20:19:38.354Z,95.90
2018-07-13T20:22:08.729Z,97.30
2018-07-13T20:24:37.158Z,99.00
2018-07-13T20:27:06.097Z,99.50
2018-07-13T20:29:35.822Z,99.90
2018-07-13T20:32:04.457Z,99.90
2018-07-13T20:34:34.025Z,99.90
2018-07-13T20:37:02.633Z,99.90
2018-07-13T20:39:31.231Z,99.90
2018-07-13T20:42:01.094Z,99.90
2018-07-13T20:44:29.600Z,99.90
2018-07-13T20:46:58.161Z,99.90
2018-07-13T20:49:27.897Z,99.90
2018-07-13T20:51:56.309Z,99.90
2018-07-13T20:54:25.435Z,99.90
2018-07-13T20:56:55.422Z,99.90
2018-07-13T20:59:24.383Z,99.90
2018-07-13T21:01:53.607Z,99.90
2018-07-13T21:04:22.243Z,99.90
2018-07-13T21:06:51.392Z,99.90
2018-07-13T21:09:20.254Z,99.90
2018-07-13T21:11:48.732Z,99.90
2018-07-13T21:14:17.430Z,99.90
2018-07-13T21:16:45.909Z,99.90
2018-07-13T21:19:14.567Z,99.90
2018-07-13T21:21:44.342Z,99.90
2018-07-13T21:24:12.881Z,99.90
2018-07-13T21:26:41.677Z,99.90
2018-07-13T21:29:10.105Z,99.90
2018-07-13T21:31:39.297Z,99.90
2018-07-13T21:34:07.758Z,99.90
2018-07-13T21:36:36.361Z,99.90
2018-07-13T21:39:05.179Z,99.90
2018-07-13T21:41:33.951Z,99.90
2018-07-13T21:44:02.412Z,99.90
2018-07-13T21:46:30.823Z,99.90
2018-07-13T21:48:59.290Z,99.90
2018-07-13T21:51:27.772Z,99.90
2018-07-13T21:53:56.640Z,99.90
